createdAt,value
2023-05-20T00:00:35.087Z,8.98
2023-05-20T00:01:35.067Z,8.91
2023-05-20T00:02:35.157Z,8.89
2023-05-20T00:03:35.267Z,8.81
2023-05-20T00:04:35.045Z,8.83
2023-05-20T00:05:35.016Z,8.91
2023-05-20T00:06:35.048Z,9.04
2023-05-20T00:07:34.993Z,9.26
2023-05-20T00:08:34.992Z,9.47
2023-05-20T00:09:34.980Z,9.64
2023-05-20T00:10:34.956Z,9.78
2023-05-20T00:11:34.968Z,9.93
2023-05-20T00:12:34.964Z,10.07
2023-05-20T00:13:34.930Z,10.15
2023-05-20T00:14:34.909Z,10.25
2023-05-20T00:15:35.156Z,10.33
2023-05-20T00:16:34.937Z,10.40
2023-05-20T00:17:34.951Z,10.44
2023-05-20T00:18:34.898Z,10.51
2023-05-20T00:19:34.873Z,10.53
2023-05-20T00:20:34.850Z,10.59
2023-05-20T00:21:34.859Z,10.63
2023-05-20T00:22:34.837Z,10.66
2023-05-20T00:23:34.847Z,10.67
2023-05-20T00:24:34.808Z,10.70
2023-05-20T00:25:35.031Z,10.70
2023-05-20T00:26:34.804Z,10.74
2023-05-20T00:27:34.786Z,10.76
2023-05-20T00:28:34.789Z,10.76
2023-05-20T00:29:34.782Z,10.81
2023-05-20T00:30:34.758Z,10.81
2023-05-20T00:31:34.771Z,10.81
2023-05-20T00:32:34.773Z,10.82
2023-05-20T00:33:34.720Z,10.84
2023-05-20T00:34:34.701Z,10.81
2023-05-20T00:35:34.881Z,10.84
2023-05-20T00:36:34.693Z,10.84
2023-05-20T00:37:34.695Z,10.84
2023-05-20T00:38:34.663Z,10.84
2023-05-20T00:39:34.667Z,10.82
2023-05-20T00:40:34.644Z,10.82
2023-05-20T00:41:34.644Z,10.81
2023-05-20T00:42:34.644Z,10.82
2023-05-20T00:43:34.603Z,10.84
2023-05-20T00:44:34.589Z,10.82
2023-05-20T00:45:34.838Z,10.81
2023-05-20T00:46:34.645Z,10.82
2023-05-20T00:47:34.623Z,10.82
2023-05-20T00:48:34.549Z,10.82
2023-05-20T00:49:34.542Z,10.79
2023-05-20T00:50:34.526Z,10.78
2023-05-20T00:51:34.551Z,10.76
2023-05-20T00:52:34.524Z,10.76
2023-05-20T00:53:34.513Z,10.79
2023-05-20T00:54:34.510Z,10.74
2023-05-20T00:55:34.687Z,10.78
2023-05-20T00:56:34.472Z,10.74
2023-05-20T00:57:34.454Z,10.74
2023-05-20T00:58:34.445Z,10.74
2023-05-20T00:59:34.461Z,10.76
2023-05-20T01:00:34.421Z,10.76
2023-05-20T01:01:34.461Z,10.74
2023-05-20T01:02:34.507Z,10.73
2023-05-20T01:03:34.617Z,10.71
2023-05-20T01:04:34.372Z,10.70
2023-05-20T01:05:34.612Z,10.68
2023-05-20T01:06:34.373Z,10.67
2023-05-20T01:07:34.347Z,10.66
2023-05-20T01:08:34.334Z,10.66
2023-05-20T01:09:34.341Z,10.67
2023-05-20T01:10:34.323Z,10.64
2023-05-20T01:11:34.314Z,10.60
2023-05-20T01:12:34.302Z,10.56
2023-05-20T01:13:34.290Z,10.59
2023-05-20T01:14:34.270Z,10.55
2023-05-20T01:15:34.529Z,10.55
2023-05-20T01:16:34.272Z,10.52
2023-05-20T01:17:34.300Z,10.48
2023-05-20T01:18:34.238Z,10.44
2023-05-20T01:19:34.263Z,10.44
2023-05-20T01:20:34.253Z,10.40
2023-05-20T01:21:34.188Z,10.41
2023-05-20T01:22:34.185Z,10.38
2023-05-20T01:23:34.195Z,10.40
2023-05-20T01:24:34.176Z,10.38
2023-05-20T01:25:34.436Z,10.36
2023-05-20T01:26:34.162Z,10.32
2023-05-20T01:27:34.126Z,10.38
2023-05-20T01:28:34.129Z,10.34
2023-05-20T01:29:34.117Z,10.33
2023-05-20T01:30:34.123Z,10.36
2023-05-20T01:31:34.116Z,10.38
2023-05-20T01:32:34.126Z,10.36
2023-05-20T01:33:34.081Z,10.36
2023-05-20T01:34:34.054Z,10.33
2023-05-20T01:35:34.246Z,10.34
2023-05-20T01:36:34.041Z,10.30
2023-05-20T01:37:34.054Z,10.26
2023-05-20T01:38:34.022Z,10.25
2023-05-20T01:39:34.003Z,10.25
2023-05-20T01:40:34.018Z,10.23
2023-05-20T01:41:34.006Z,10.22
2023-05-20T01:42:34.003Z,10.20
2023-05-20T01:43:33.972Z,10.25
2023-05-20T01:44:33.951Z,10.26
2023-05-20T01:45:34.227Z,10.25
2023-05-20T01:46:33.993Z,10.22
2023-05-20T01:47:33.973Z,10.22
2023-05-20T01:48:33.920Z,10.20
2023-05-20T01:49:33.895Z,10.20
2023-05-20T01:50:33.897Z,10.20
2023-05-20T01:51:33.881Z,10.18
2023-05-20T01:52:33.866Z,10.17
2023-05-20T01:53:33.876Z,10.18
2023-05-20T01:54:33.851Z,10.15
2023-05-20T01:55:34.032Z,10.17
2023-05-20T01:56:33.826Z,10.17
2023-05-20T01:57:33.816Z,10.17
2023-05-20T01:58:33.810Z,10.17
2023-05-20T01:59:33.812Z,10.12
2023-05-20T02:00:33.818Z,10.12
2023-05-20T02:01:33.770Z,10.09
2023-05-20T02:02:33.951Z,10.07
2023-05-20T02:03:33.758Z,10.08
2023-05-20T02:04:33.742Z,10.05
2023-05-20T02:05:34.082Z,10.05
2023-05-20T02:06:33.733Z,10.04
2023-05-20T02:07:33.711Z,10.05
2023-05-20T02:08:33.711Z,10.04
2023-05-20T02:09:33.687Z,10.02
2023-05-20T02:10:33.685Z,10.01
2023-05-20T02:11:33.679Z,10.02
2023-05-20T02:12:33.662Z,10.02
2023-05-20T02:13:33.653Z,10.01
2023-05-20T02:14:33.636Z,10.02
2023-05-20T02:15:33.912Z,10.02
2023-05-20T02:16:33.655Z,9.99
2023-05-20T02:17:33.624Z,10.01
2023-05-20T02:18:33.619Z,9.99
2023-05-20T02:19:33.571Z,10.01
2023-05-20T02:20:33.584Z,10.01
2023-05-20T02:21:33.556Z,9.97
2023-05-20T02:22:33.551Z,9.96
2023-05-20T02:23:33.543Z,10.01
2023-05-20T02:24:33.548Z,9.99
2023-05-20T02:25:33.810Z,9.99
2023-05-20T02:26:33.511Z,9.96
2023-05-20T02:27:33.508Z,9.94
2023-05-20T02:28:33.496Z,9.93
2023-05-20T02:29:33.474Z,9.93
2023-05-20T02:30:33.474Z,9.89
2023-05-20T02:31:33.460Z,9.89
2023-05-20T02:32:33.464Z,9.89
2023-05-20T02:33:33.487Z,9.91
2023-05-20T02:34:33.484Z,9.90
2023-05-20T02:35:33.620Z,9.89
2023-05-20T02:36:33.427Z,9.86
2023-05-20T02:37:33.384Z,9.87
2023-05-20T02:38:33.377Z,9.87
2023-05-20T02:39:33.369Z,9.87
2023-05-20T02:40:33.354Z,9.87
2023-05-20T02:41:33.375Z,9.86
2023-05-20T02:42:33.353Z,9.89
2023-05-20T02:43:33.332Z,9.87
2023-05-20T02:44:33.312Z,9.87
2023-05-20T02:45:33.303Z,9.86
2023-05-20T02:46:33.334Z,9.86
2023-05-20T02:47:33.358Z,9.84
2023-05-20T02:48:33.282Z,9.86
2023-05-20T02:49:33.255Z,9.84
2023-05-20T02:50:33.259Z,9.84
2023-05-20T02:51:33.249Z,9.83
2023-05-20T02:52:33.242Z,9.86
2023-05-20T02:53:33.237Z,9.83
2023-05-20T02:54:33.213Z,9.83
2023-05-20T02:55:33.364Z,9.81
2023-05-20T02:56:33.200Z,9.79
2023-05-20T02:57:33.167Z,9.83
2023-05-20T02:58:33.172Z,9.83
2023-05-20T02:59:33.160Z,9.84
2023-05-20T03:00:33.147Z,9.81
2023-05-20T03:01:33.133Z,9.79
2023-05-20T03:02:33.088Z,9.76
2023-05-20T03:03:33.135Z,9.75
2023-05-20T03:04:33.122Z,9.72
2023-05-20T03:05:33.308Z,9.71
2023-05-20T03:06:33.082Z,9.69
2023-05-20T03:07:33.060Z,9.69
2023-05-20T03:08:33.019Z,9.69
2023-05-20T03:09:32.998Z,9.68
2023-05-20T03:10:32.984Z,9.65
2023-05-20T03:11:33.002Z,9.65
2023-05-20T03:12:32.972Z,9.56
2023-05-20T03:13:32.942Z,9.58
2023-05-20T03:14:32.948Z,9.54
2023-05-20T03:15:33.165Z,9.56
2023-05-20T03:16:33.001Z,9.51
2023-05-20T03:17:33.035Z,9.53
2023-05-20T03:18:32.900Z,9.53
2023-05-20T03:19:32.959Z,9.54
2023-05-20T03:20:32.871Z,9.56
2023-05-20T03:21:32.858Z,9.56
2023-05-20T03:22:32.851Z,9.57
2023-05-20T03:23:32.831Z,9.54
2023-05-20T03:24:32.849Z,9.56
2023-05-20T03:25:33.051Z,9.54
2023-05-20T03:26:32.835Z,9.56
2023-05-20T03:27:32.902Z,9.54
2023-05-20T03:28:32.776Z,9.53
2023-05-20T03:29:32.780Z,9.54
2023-05-20T03:30:32.769Z,9.51
2023-05-20T03:31:32.806Z,9.51
2023-05-20T03:32:32.762Z,9.50
2023-05-20T03:33:32.737Z,9.47
2023-05-20T03:34:32.720Z,9.46
2023-05-20T03:35:33.088Z,9.40
2023-05-20T03:36:32.698Z,9.38
2023-05-20T03:37:32.678Z,9.33
2023-05-20T03:38:32.677Z,9.33
2023-05-20T03:39:32.725Z,9.31
2023-05-20T03:40:32.646Z,9.31
2023-05-20T03:41:32.650Z,9.31
2023-05-20T03:42:32.640Z,9.31
2023-05-20T03:43:32.622Z,9.31
2023-05-20T03:44:32.630Z,9.31
2023-05-20T03:45:32.668Z,9.29
2023-05-20T03:46:32.673Z,9.29
2023-05-20T03:47:32.602Z,9.28
2023-05-20T03:48:32.585Z,9.24
2023-05-20T03:49:32.548Z,9.18
2023-05-20T03:50:32.558Z,9.17
2023-05-20T03:51:32.557Z,9.13
2023-05-20T03:52:32.577Z,9.08
2023-05-20T03:53:32.522Z,9.11
2023-05-20T03:54:32.510Z,9.05
2023-05-20T03:55:32.739Z,9.08
2023-05-20T03:56:32.498Z,9.08
2023-05-20T03:57:32.504Z,9.05
2023-05-20T03:58:32.469Z,9.10
2023-05-20T03:59:32.448Z,9.10
2023-05-20T04:00:32.588Z,9.13
2023-05-20T04:01:32.434Z,9.14
2023-05-20T04:02:32.510Z,9.15
2023-05-20T04:03:32.527Z,9.18
2023-05-20T04:04:32.385Z,9.17
2023-05-20T04:05:32.490Z,9.20
2023-05-20T04:06:32.385Z,9.18
2023-05-20T04:07:32.365Z,9.23
2023-05-20T04:08:32.363Z,9.24
2023-05-20T04:09:32.338Z,9.28
2023-05-20T04:10:32.347Z,9.32
2023-05-20T04:11:32.322Z,9.36
2023-05-20T04:12:32.324Z,9.35
2023-05-20T04:13:32.297Z,9.35
2023-05-20T04:14:33.797Z,9.33
2023-05-20T04:15:32.352Z,9.35
2023-05-20T04:16:32.317Z,9.32
2023-05-20T04:17:32.298Z,9.32
2023-05-20T04:18:32.249Z,9.32
2023-05-20T04:19:32.220Z,9.29
2023-05-20T04:20:32.223Z,9.24
2023-05-20T04:21:32.202Z,9.21
2023-05-20T04:22:32.210Z,9.20
2023-05-20T04:23:32.197Z,9.20
2023-05-20T04:24:32.188Z,9.18
2023-05-20T04:25:32.161Z,9.18
2023-05-20T04:26:32.162Z,9.21
2023-05-20T04:27:32.164Z,9.26
2023-05-20T04:28:32.146Z,9.28
2023-05-20T04:29:32.130Z,9.32
2023-05-20T04:30:32.120Z,9.36
2023-05-20T04:31:32.104Z,9.42
2023-05-20T04:32:32.115Z,9.43
2023-05-20T04:33:32.074Z,9.47
2023-05-20T04:34:32.070Z,9.50
2023-05-20T04:35:32.191Z,9.54
2023-05-20T04:36:32.066Z,9.57
2023-05-20T04:37:32.086Z,9.60
2023-05-20T04:38:32.038Z,9.65
2023-05-20T04:39:32.000Z,9.69
2023-05-20T04:40:32.023Z,9.71
2023-05-20T04:41:32.054Z,9.76
2023-05-20T04:42:31.999Z,9.79
2023-05-20T04:43:32.027Z,9.81
2023-05-20T04:44:31.957Z,9.86
2023-05-20T04:45:32.066Z,9.89
2023-05-20T04:46:31.963Z,9.91
2023-05-20T04:47:31.964Z,9.97
2023-05-20T04:48:31.931Z,10.02
2023-05-20T04:49:31.926Z,10.02
2023-05-20T04:50:31.916Z,10.05
2023-05-20T04:51:31.884Z,10.08
2023-05-20T04:52:31.885Z,10.11
2023-05-20T04:53:31.875Z,10.14
2023-05-20T04:54:31.870Z,10.11
2023-05-20T04:55:31.887Z,10.11
2023-05-20T04:56:31.843Z,10.12
2023-05-20T04:57:31.822Z,10.11
2023-05-20T04:58:31.829Z,10.11
2023-05-20T04:59:31.807Z,10.11
2023-05-20T05:00:31.806Z,10.14
2023-05-20T05:01:31.837Z,10.17
2023-05-20T05:02:31.816Z,10.14
2023-05-20T05:03:31.766Z,10.15
2023-05-20T05:04:31.791Z,10.17
2023-05-20T05:05:31.921Z,10.17
2023-05-20T05:06:31.732Z,10.22
2023-05-20T05:07:31.732Z,10.26
2023-05-20T05:08:31.705Z,10.29
2023-05-20T05:09:33.103Z,10.34
2023-05-20T05:10:32.723Z,10.42
2023-05-20T05:11:31.710Z,10.45
2023-05-20T05:12:31.662Z,10.56
2023-05-20T05:13:31.650Z,10.63
2023-05-20T05:14:31.647Z,10.68
2023-05-20T05:15:31.752Z,10.73
2023-05-20T05:16:31.725Z,10.76
2023-05-20T05:17:31.644Z,10.79
2023-05-20T05:18:31.650Z,10.81
2023-05-20T05:19:31.709Z,10.84
2023-05-20T05:20:31.586Z,10.85
2023-05-20T05:21:31.577Z,10.86
2023-05-20T05:22:31.565Z,10.86
2023-05-20T05:23:31.564Z,10.86
2023-05-20T05:24:31.545Z,10.88
2023-05-20T05:25:31.630Z,10.88
2023-05-20T05:26:31.511Z,10.89
2023-05-20T05:27:31.495Z,10.91
2023-05-20T05:28:31.521Z,10.91
2023-05-20T05:29:31.519Z,10.97
2023-05-20T05:30:31.519Z,10.99
2023-05-20T05:31:31.454Z,11.02
2023-05-20T05:32:31.564Z,11.06
2023-05-20T05:33:31.516Z,11.10
2023-05-20T05:34:31.466Z,11.17
2023-05-20T05:35:31.456Z,11.21
2023-05-20T05:36:31.413Z,11.24
2023-05-20T05:37:31.391Z,11.25
2023-05-20T05:38:31.438Z,11.29
2023-05-20T05:39:31.436Z,11.32
2023-05-20T05:40:31.359Z,11.28
2023-05-20T05:41:31.383Z,11.25
2023-05-20T05:42:31.353Z,11.27
2023-05-20T05:43:31.366Z,11.29
2023-05-20T05:44:31.373Z,11.36
2023-05-20T05:45:31.619Z,11.39
2023-05-20T05:46:31.589Z,11.40
2023-05-20T05:47:31.360Z,11.44
2023-05-20T05:48:31.277Z,11.49
2023-05-20T05:49:31.291Z,11.51
2023-05-20T05:50:31.253Z,11.55
2023-05-20T05:51:31.285Z,11.61
2023-05-20T05:52:31.225Z,11.61
2023-05-20T05:53:31.239Z,11.64
2023-05-20T05:54:31.238Z,11.65
2023-05-20T05:55:31.277Z,11.70
2023-05-20T05:56:31.196Z,11.70
2023-05-20T05:57:31.208Z,11.72
2023-05-20T05:58:31.171Z,11.80
2023-05-20T05:59:31.172Z,11.83
2023-05-20T06:00:31.149Z,11.88
2023-05-20T06:01:31.140Z,11.88
2023-05-20T06:02:31.252Z,11.90
2023-05-20T06:03:31.243Z,11.85
2023-05-20T06:04:31.206Z,11.88
2023-05-20T06:05:31.169Z,11.94
2023-05-20T06:06:31.092Z,12.01
2023-05-20T06:07:31.103Z,12.07
2023-05-20T06:08:31.052Z,12.12
2023-05-20T06:09:31.051Z,12.14
2023-05-20T06:10:31.029Z,12.12
2023-05-20T06:11:31.041Z,12.14
2023-05-20T06:12:31.019Z,12.17
2023-05-20T06:13:31.008Z,12.17
2023-05-20T06:14:30.993Z,12.20
2023-05-20T06:15:31.011Z,12.20
2023-05-20T06:16:30.990Z,12.21
2023-05-20T06:17:31.005Z,12.23
2023-05-20T06:18:30.977Z,12.27
2023-05-20T06:19:30.973Z,12.31
2023-05-20T06:20:30.939Z,12.28
2023-05-20T06:21:30.935Z,12.28
2023-05-20T06:22:30.928Z,12.37
2023-05-20T06:23:30.933Z,12.39
2023-05-20T06:24:30.903Z,12.47
2023-05-20T06:25:30.976Z,12.52
2023-05-20T06:26:30.861Z,12.47
2023-05-20T06:27:30.868Z,12.47
2023-05-20T06:28:30.877Z,12.45
2023-05-20T06:29:30.857Z,12.45
2023-05-20T06:30:30.842Z,12.45
2023-05-20T06:31:30.838Z,12.52
2023-05-20T06:32:30.839Z,12.57
2023-05-20T06:33:30.831Z,12.59
2023-05-20T06:34:30.782Z,12.70
2023-05-20T06:35:30.789Z,12.68
2023-05-20T06:36:33.047Z,12.68
2023-05-20T06:37:30.808Z,12.71
2023-05-20T06:38:30.740Z,12.72
2023-05-20T06:39:30.753Z,12.77
2023-05-20T06:40:30.756Z,12.82
2023-05-20T06:41:30.745Z,12.82
2023-05-20T06:42:30.694Z,12.82
2023-05-20T06:43:30.726Z,12.82
2023-05-20T06:44:30.674Z,12.83
2023-05-20T06:45:30.692Z,12.86
2023-05-20T06:46:30.705Z,12.89
2023-05-20T06:47:30.676Z,12.90
2023-05-20T06:48:30.633Z,12.87
2023-05-20T06:49:30.626Z,12.83
2023-05-20T06:50:30.602Z,12.77
2023-05-20T06:51:30.594Z,12.78
2023-05-20T06:52:30.592Z,12.92
2023-05-20T06:53:30.590Z,13.01
2023-05-20T06:54:30.565Z,13.08
2023-05-20T06:55:30.579Z,13.12
2023-05-20T06:56:30.545Z,13.14
2023-05-20T06:57:30.549Z,13.20
2023-05-20T06:58:30.526Z,13.20
2023-05-20T06:59:30.520Z,13.19
2023-05-20T07:00:30.501Z,13.19
2023-05-20T07:01:30.530Z,13.20
2023-05-20T07:02:30.608Z,13.20
2023-05-20T07:03:30.501Z,13.19
2023-05-20T07:04:30.453Z,13.25
2023-05-20T07:05:30.508Z,13.29
2023-05-20T07:06:30.446Z,13.29
2023-05-20T07:07:30.424Z,13.32
2023-05-20T07:08:30.502Z,13.28
2023-05-20T07:09:30.403Z,13.29
2023-05-20T07:10:31.775Z,13.22
2023-05-20T07:11:31.733Z,13.17
2023-05-20T07:12:30.378Z,13.19
2023-05-20T07:13:30.362Z,13.14
2023-05-20T07:14:30.337Z,13.10
2023-05-20T07:15:30.359Z,13.05
2023-05-20T07:16:30.385Z,13.03
2023-05-20T07:17:30.324Z,13.03
2023-05-20T07:18:30.315Z,13.08
2023-05-20T07:19:30.394Z,13.14
2023-05-20T07:20:30.286Z,13.14
2023-05-20T07:21:30.290Z,13.23
2023-05-20T07:22:30.248Z,13.30
2023-05-20T07:23:30.279Z,13.46
2023-05-20T07:24:30.251Z,13.41
2023-05-20T07:25:30.242Z,13.39
2023-05-20T07:26:30.209Z,13.42
2023-05-20T07:27:30.212Z,13.51
2023-05-20T07:28:30.196Z,13.57
2023-05-20T07:29:30.207Z,13.66
2023-05-20T07:30:30.216Z,13.89
2023-05-20T07:31:30.184Z,13.96
2023-05-20T07:32:30.209Z,14.03
2023-05-20T07:33:30.929Z,14.06
2023-05-20T07:34:30.135Z,14.04
2023-05-20T07:35:30.115Z,14.02
2023-05-20T07:36:30.132Z,14.09
2023-05-20T07:37:30.099Z,14.12
2023-05-20T07:38:30.077Z,14.09
2023-05-20T07:39:30.087Z,14.06
2023-05-20T07:40:30.057Z,14.14
2023-05-20T07:41:30.094Z,14.12
2023-05-20T07:42:30.059Z,14.06
2023-05-20T07:43:30.035Z,14.21
2023-05-20T07:44:30.029Z,14.32
2023-05-20T07:45:30.005Z,14.36
2023-05-20T07:46:30.096Z,14.32
2023-05-20T07:47:30.088Z,14.27
2023-05-20T07:48:29.986Z,14.20
2023-05-20T07:49:29.987Z,14.09
2023-05-20T07:50:29.943Z,14.04
2023-05-20T07:51:29.948Z,14.02
2023-05-20T07:52:30.999Z,14.00
2023-05-20T07:53:29.919Z,13.97
2023-05-20T07:54:29.915Z,13.96
2023-05-20T07:55:29.902Z,14.00
2023-05-20T07:56:29.893Z,13.97
2023-05-20T07:57:30.134Z,13.97
2023-05-20T07:58:29.883Z,13.88
2023-05-20T07:59:29.910Z,13.85
2023-05-20T08:00:29.871Z,13.79
2023-05-20T08:01:29.841Z,13.84
2023-05-20T08:02:29.919Z,13.89
2023-05-20T08:03:29.920Z,13.99
2023-05-20T08:04:29.843Z,14.09
2023-05-20T08:05:29.885Z,14.18
2023-05-20T08:06:30.120Z,14.22
2023-05-20T08:07:29.821Z,14.21
2023-05-20T08:08:29.753Z,14.20
2023-05-20T08:09:29.740Z,14.06
2023-05-20T08:10:29.725Z,14.02
2023-05-20T08:11:29.888Z,14.07
2023-05-20T08:12:29.706Z,14.04
2023-05-20T08:13:29.707Z,14.02
2023-05-20T08:14:29.685Z,13.95
2023-05-20T08:15:29.683Z,13.96
2023-05-20T08:16:29.738Z,14.03
2023-05-20T08:17:29.693Z,14.02
2023-05-20T08:18:29.724Z,14.03
2023-05-20T08:19:29.711Z,14.12
2023-05-20T08:20:29.637Z,14.21
2023-05-20T08:21:29.618Z,14.14
2023-05-20T08:22:29.602Z,14.09
2023-05-20T08:23:29.619Z,14.14
2023-05-20T08:24:29.586Z,14.10
2023-05-20T08:25:29.571Z,14.06
2023-05-20T08:26:29.570Z,14.10
2023-05-20T08:27:29.551Z,14.20
2023-05-20T08:28:29.533Z,14.32
2023-05-20T08:29:29.534Z,14.29
2023-05-20T08:30:29.514Z,14.36
2023-05-20T08:31:29.603Z,14.40
2023-05-20T08:32:29.519Z,14.58
2023-05-20T08:33:29.528Z,14.52
2023-05-20T08:34:29.510Z,14.46
2023-05-20T08:35:29.476Z,14.45
2023-05-20T08:36:29.496Z,14.40
2023-05-20T08:37:29.453Z,14.36
2023-05-20T08:38:29.427Z,14.28
2023-05-20T08:39:29.442Z,14.33
2023-05-20T08:40:29.409Z,14.33
2023-05-20T08:41:29.409Z,14.27
2023-05-20T08:42:29.396Z,14.25
2023-05-20T08:43:29.374Z,14.28
2023-05-20T08:44:29.374Z,14.33
2023-05-20T08:45:29.364Z,14.39
2023-05-20T08:46:29.362Z,14.47
2023-05-20T08:47:29.365Z,14.54
2023-05-20T08:48:29.357Z,14.57
2023-05-20T08:49:29.321Z,14.65
2023-05-20T08:50:29.298Z,14.65
2023-05-20T08:51:29.292Z,14.70
2023-05-20T08:52:29.293Z,14.69
2023-05-20T08:53:29.285Z,14.80
2023-05-20T08:54:29.264Z,14.80
2023-05-20T08:55:29.265Z,14.83
2023-05-20T08:56:31.004Z,14.83
2023-05-20T08:57:29.234Z,14.86
2023-05-20T08:58:29.214Z,14.80
2023-05-20T08:59:29.227Z,14.80
2023-05-20T09:00:29.194Z,14.68
2023-05-20T09:01:29.245Z,14.62
2023-05-20T09:02:29.185Z,14.58
2023-05-20T09:03:29.185Z,14.62
2023-05-20T09:04:29.204Z,14.61
2023-05-20T09:05:29.158Z,14.62
2023-05-20T09:06:29.132Z,14.64
2023-05-20T09:07:29.127Z,14.61
2023-05-20T09:08:29.101Z,14.58
2023-05-20T09:09:29.100Z,14.61
2023-05-20T09:10:29.100Z,14.72
2023-05-20T09:11:29.101Z,14.73
2023-05-20T09:12:29.070Z,14.83
2023-05-20T09:13:29.115Z,14.83
2023-05-20T09:14:29.049Z,14.88
2023-05-20T09:15:29.040Z,14.96
2023-05-20T09:16:29.075Z,15.01
2023-05-20T09:17:29.065Z,15.10
2023-05-20T09:18:29.014Z,15.28
2023-05-20T09:19:29.048Z,15.38
2023-05-20T09:20:29.001Z,15.49
2023-05-20T09:21:28.971Z,15.60
2023-05-20T09:22:28.953Z,15.59
2023-05-20T09:23:28.958Z,15.64
2023-05-20T09:24:28.936Z,15.62
2023-05-20T09:25:28.954Z,15.53
2023-05-20T09:26:28.927Z,15.49
2023-05-20T09:27:28.951Z,15.47
2023-05-20T09:28:28.939Z,15.50
2023-05-20T09:29:28.910Z,15.75
2023-05-20T09:30:28.968Z,15.87
2023-05-20T09:31:28.939Z,15.86
2023-05-20T09:32:28.983Z,15.90
2023-05-20T09:33:28.907Z,15.90
2023-05-20T09:34:28.905Z,15.86
2023-05-20T09:35:28.868Z,15.78
2023-05-20T09:36:28.886Z,15.83
2023-05-20T09:37:28.887Z,15.78
2023-05-20T09:38:28.834Z,15.71
2023-05-20T09:39:28.816Z,15.75
2023-05-20T09:40:28.809Z,15.72
2023-05-20T09:41:28.817Z,15.72
2023-05-20T09:42:28.787Z,15.83
2023-05-20T09:43:29.044Z,15.80
2023-05-20T09:44:28.755Z,15.69
2023-05-20T09:45:28.771Z,15.65
2023-05-20T09:46:28.862Z,15.78
2023-05-20T09:47:28.782Z,15.80
2023-05-20T09:48:28.760Z,15.84
2023-05-20T09:49:28.735Z,15.86
2023-05-20T09:50:29.088Z,15.86
2023-05-20T09:51:28.679Z,15.76
2023-05-20T09:52:28.741Z,15.62
2023-05-20T09:53:28.710Z,15.44
2023-05-20T09:54:28.708Z,15.41
2023-05-20T09:55:28.687Z,15.39
2023-05-20T09:56:28.684Z,15.46
2023-05-20T09:57:28.697Z,15.43
2023-05-20T09:58:28.674Z,15.53
2023-05-20T09:59:28.664Z,15.57
2023-05-20T10:00:28.664Z,15.60
2023-05-20T10:01:28.677Z,15.64
2023-05-20T10:02:28.728Z,15.72
2023-05-20T10:03:28.816Z,15.76
2023-05-20T10:04:28.575Z,15.74
2023-05-20T10:05:28.503Z,15.65
2023-05-20T10:06:28.484Z,15.64
2023-05-20T10:07:41.380Z,15.67
2023-05-20T10:08:28.472Z,15.69
2023-05-20T10:09:28.468Z,15.69
2023-05-20T10:10:28.446Z,15.64
2023-05-20T10:11:28.442Z,15.67
2023-05-20T10:12:28.442Z,15.74
2023-05-20T10:13:28.481Z,15.75
2023-05-20T10:14:28.408Z,15.74
2023-05-20T10:15:28.419Z,15.75
2023-05-20T10:16:28.411Z,15.71
2023-05-20T10:17:28.413Z,15.78
2023-05-20T10:18:28.375Z,16.00
2023-05-20T10:19:28.912Z,16.23
2023-05-20T10:20:28.340Z,16.43
2023-05-20T10:21:28.362Z,16.48
2023-05-20T10:22:28.345Z,16.66
2023-05-20T10:23:28.383Z,16.61
2023-05-20T10:24:28.306Z,16.45
2023-05-20T10:25:28.303Z,16.35
2023-05-20T10:26:28.276Z,16.14
2023-05-20T10:27:28.266Z,16.00
2023-05-20T10:28:28.253Z,15.84
2023-05-20T10:29:28.286Z,15.84
2023-05-20T10:30:28.265Z,15.82
2023-05-20T10:31:28.218Z,15.76
2023-05-20T10:32:28.321Z,15.76
2023-05-20T10:33:28.289Z,15.76
2023-05-20T10:34:28.183Z,15.76
2023-05-20T10:35:28.209Z,15.71
2023-05-20T10:36:28.163Z,15.71
2023-05-20T10:37:28.176Z,15.65
2023-05-20T10:38:28.138Z,15.51
2023-05-20T10:39:28.136Z,15.47
2023-05-20T10:40:28.138Z,15.47
2023-05-20T10:41:28.122Z,15.46
2023-05-20T10:42:28.127Z,15.46
2023-05-20T10:43:28.077Z,15.43
2023-05-20T10:44:28.095Z,15.35
2023-05-20T10:45:28.081Z,15.34
2023-05-20T10:46:37.892Z,15.38
2023-05-20T10:47:28.120Z,15.43
2023-05-20T10:48:28.151Z,15.49
2023-05-20T10:49:28.185Z,15.44
2023-05-20T10:50:28.015Z,15.39
2023-05-20T10:51:28.017Z,15.44
2023-05-20T10:52:28.001Z,15.49
2023-05-20T10:53:34.247Z,15.53
2023-05-20T10:54:30.404Z,15.56
2023-05-20T10:55:27.955Z,15.62
2023-05-20T10:56:27.934Z,15.65
2023-05-20T10:57:27.933Z,15.60
2023-05-20T10:58:27.947Z,15.56
2023-05-20T10:59:27.920Z,15.57
2023-05-20T11:00:27.905Z,15.60
2023-05-20T11:01:27.920Z,15.62
2023-05-20T11:02:27.946Z,15.68
2023-05-20T11:03:27.913Z,15.67
2023-05-20T11:04:27.850Z,15.64
2023-05-20T11:05:27.864Z,15.69
2023-05-20T11:06:27.842Z,15.76
2023-05-20T11:07:27.875Z,15.82
2023-05-20T11:08:29.454Z,15.96
2023-05-20T11:09:27.815Z,15.89
2023-05-20T11:10:27.794Z,15.93
2023-05-20T11:11:27.814Z,15.94
2023-05-20T11:12:27.820Z,16.04
2023-05-20T11:13:27.804Z,16.17
2023-05-20T11:14:27.752Z,16.24
2023-05-20T11:15:27.780Z,16.27
2023-05-20T11:16:27.775Z,16.17
2023-05-20T11:17:27.781Z,15.86
2023-05-20T11:18:27.714Z,15.69
2023-05-20T11:19:27.807Z,15.71
2023-05-20T11:20:27.706Z,15.80
2023-05-20T11:21:27.684Z,15.82
2023-05-20T11:22:27.668Z,15.82
2023-05-20T11:23:27.660Z,15.82
2023-05-20T11:24:27.714Z,15.89
2023-05-20T11:25:27.646Z,15.93
2023-05-20T11:26:27.624Z,15.96
2023-05-20T11:27:27.606Z,15.96
2023-05-20T11:28:27.605Z,15.94
2023-05-20T11:29:27.600Z,15.90
2023-05-20T11:30:27.581Z,15.93
2023-05-20T11:31:27.605Z,15.94
2023-05-20T11:32:27.597Z,15.93
2023-05-20T11:33:27.550Z,15.87
2023-05-20T11:34:29.299Z,15.78
2023-05-20T11:35:27.550Z,15.64
2023-05-20T11:36:28.411Z,15.57
2023-05-20T11:37:27.545Z,15.46
2023-05-20T11:38:27.515Z,15.39
2023-05-20T11:39:27.539Z,15.36
2023-05-20T11:40:32.754Z,15.28
2023-05-20T11:41:27.482Z,15.21
2023-05-20T11:42:27.462Z,15.17
2023-05-20T11:43:27.459Z,15.17
2023-05-20T11:44:27.418Z,15.21
2023-05-20T11:45:27.455Z,15.23
2023-05-20T11:46:27.912Z,15.21
2023-05-20T11:47:28.358Z,15.25
2023-05-20T11:48:27.500Z,15.21
2023-05-20T11:49:27.408Z,15.27
2023-05-20T11:50:27.559Z,15.29
2023-05-20T11:51:27.911Z,15.31
2023-05-20T11:52:28.022Z,15.27
2023-05-20T11:53:28.912Z,15.20
2023-05-20T11:54:27.323Z,15.20
2023-05-20T11:55:28.284Z,15.25
2023-05-20T11:56:27.285Z,15.31
2023-05-20T11:57:27.284Z,15.25
2023-05-20T11:58:27.284Z,15.28
2023-05-20T11:59:27.355Z,15.31
2023-05-20T12:00:31.179Z,15.31
2023-05-20T12:01:27.497Z,15.39
2023-05-20T12:02:27.308Z,15.44
2023-05-20T12:03:27.370Z,15.49
2023-05-20T12:04:27.262Z,15.46
2023-05-20T12:05:27.210Z,15.51
2023-05-20T12:06:27.188Z,15.54
2023-05-20T12:07:27.199Z,15.60
2023-05-20T12:08:27.199Z,15.67
2023-05-20T12:09:27.190Z,15.72
2023-05-20T12:10:27.146Z,15.74
2023-05-20T12:11:27.148Z,15.75
2023-05-20T12:12:27.141Z,15.72
2023-05-20T12:13:27.122Z,15.71
2023-05-20T12:14:27.108Z,15.74
2023-05-20T12:15:27.122Z,15.72
2023-05-20T12:16:27.132Z,15.74
2023-05-20T12:17:27.110Z,15.68
2023-05-20T12:18:27.081Z,15.62
2023-05-20T12:19:27.137Z,15.53
2023-05-20T12:20:27.094Z,15.46
2023-05-20T12:21:27.027Z,15.50
2023-05-20T12:22:27.020Z,15.56
2023-05-20T12:23:27.038Z,15.57
2023-05-20T12:24:27.039Z,15.59
2023-05-20T12:25:27.003Z,15.60
2023-05-20T12:26:26.977Z,15.64
2023-05-20T12:27:26.967Z,15.64
2023-05-20T12:28:26.954Z,15.57
2023-05-20T12:29:26.951Z,15.54
2023-05-20T12:30:26.929Z,15.56
2023-05-20T12:31:26.993Z,15.57
2023-05-20T12:32:26.933Z,15.62
2023-05-20T12:33:26.919Z,15.68
2023-05-20T12:34:26.910Z,15.74
2023-05-20T12:35:26.919Z,15.80
2023-05-20T12:36:26.865Z,15.82
2023-05-20T12:37:26.846Z,15.80
2023-05-20T12:38:26.889Z,15.82
2023-05-20T12:39:26.840Z,15.80
2023-05-20T12:40:26.827Z,15.83
2023-05-20T12:41:26.854Z,15.90
2023-05-20T12:42:26.806Z,15.97
2023-05-20T12:43:26.793Z,15.92
2023-05-20T12:44:26.787Z,15.92
2023-05-20T12:45:26.765Z,15.97
2023-05-20T12:46:26.815Z,15.94
2023-05-20T12:47:26.802Z,15.89
2023-05-20T12:48:26.783Z,15.86
2023-05-20T12:49:26.737Z,15.92
2023-05-20T12:50:26.717Z,15.96
2023-05-20T12:51:26.705Z,15.97
2023-05-20T12:52:26.689Z,15.97
2023-05-20T12:53:26.700Z,16.00
2023-05-20T12:54:26.664Z,16.02
2023-05-20T12:55:26.654Z,15.94
2023-05-20T12:56:26.635Z,15.92
2023-05-20T12:57:26.658Z,15.94